Time;durP1;ratioP1;P1;durP2;ratioP2;P2;SDS_P1;SDS_P2;PMS_P1;PMS_P2;Temp;Humidity;BMP_temperature;BMP_pressure;BME280_temperature;BME280_humidity;BME280_pressure;Samples;Min_cycle;Max_cycle;Signal;HPM_P1;HPM_P2
2022/09/23 00:02:17;;;;;;;;;;;;;;;22.13;54.51;101009.19;7405324;19;1494;-73
2022/09/23 00:04:46;;;;;;;;;;;;;;;22.17;54.08;101013.28;7407277;19;1682;-72
2022/09/23 00:07:17;;;;;;;;;;;;;;;22.14;54.31;101008.19;7407250;19;1457;-72
2022/09/23 00:09:45;;;;;;;;;;;;;;;22.15;54.28;101009.88;7406142;19;1851;-59
2022/09/23 00:12:14;;;;;;;;;;;;;;;22.16;53.94;101011.59;7405142;19;1706;-73
2022/09/23 00:14:42;;;;;;;;;;;;;;;22.12;54.07;101010.19;7406585;19;1635;-59
2022/09/23 00:17:10;;;;;;;;;;;;;;;22.15;54.03;101017.97;7404183;19;1452;-59
2022/09/23 00:19:39;;;;;;;;;;;;;;;22.12;53.93;101010.19;7404052;19;1356;-60
2022/09/23 00:22:08;;;;;;;;;;;;;;;22.10;53.99;101009.47;7404910;19;1409;-59
2022/09/23 00:24:39;;;;;;;;;;;;;;;22.10;54.05;101001.41;7406090;19;1679;-59
2022/09/23 00:27:08;;;;;;;;;;;;;;;22.05;53.86;100999.16;7404172;19;1863;-59
2022/09/23 00:29:37;;;;;;;;;;;;;;;22.09;53.69;100999.72;7406154;19;1866;-72
2022/09/23 00:32:05;;;;;;;;;;;;;;;22.09;53.75;101004.28;7406094;19;1576;-72
2022/09/23 00:34:33;;;;;;;;;;;;;;;22.08;53.69;101003.41;7407167;19;1611;-72
2022/09/23 00:37:02;;;;;;;;;;;;;;;22.09;53.75;100999.72;7406513;19;1425;-60
2022/09/23 00:39:31;;;;;;;;;;;;;;;22.11;53.50;101008.50;7401532;19;1501;-59
2022/09/23 00:42:02;;;;;;;;;;;;;;;22.08;53.66;101008.78;7406266;19;1324;-73
2022/09/23 00:44:46;;;;;;;;;;;;;;;22.07;53.50;101006.25;7407258;19;1619;-59
2022/09/23 00:47:16;;;;;;;;;;;;;;;22.09;53.41;101012.34;7406286;19;1671;-59
2022/09/23 00:49:45;;;;;;;;;;;;;;;22.06;53.53;101016.16;7403591;19;1849;-59
2022/09/23 00:52:16;;;;;;;;;;;;;;;22.05;53.23;101009.94;7405554;19;1667;-59
2022/09/23 00:54:46;;;;;;;;;;;;;;;22.01;53.58;101013.09;7404931;19;1690;-73
2022/09/23 00:57:19;;;;;;;;;;;;;;;22.07;53.28;101038.59;7405575;19;1644;-73
2022/09/23 00:59:47;;;;;;;;;;;;;;;22.05;53.46;101033.34;7407416;19;996;-72
2022/09/23 01:02:16;;;;;;;;;;;;;;;22.07;53.13;101025.13;7403167;19;1565;-59
2022/09/23 01:04:45;;;;;;;;;;;;;;;22.06;53.46;101043.09;7403557;19;1779;-59
2022/09/23 01:07:13;;;;;;;;;;;;;;;22.02;53.16;101039.00;7405279;19;1356;-60
2022/09/23 01:09:42;;;;;;;;;;;;;;;22.00;53.09;101041.00;7403447;19;1841;-59
2022/09/23 01:12:17;;;;;;;;;;;;;;;22.02;53.18;101041.69;7403355;19;1468;-58
2022/09/23 01:14:54;;;;;;;;;;;;;;;22.06;53.22;101053.88;7404879;19;1471;-59
2022/09/23 01:17:28;;;;;;;;;;;;;;;22.02;52.91;101052.47;7403566;19;1403;-60
2022/09/23 01:20:13;;;;;;;;;;;;;;;22.05;53.10;101061.13;7404682;19;1297;-59
2022/09/23 01:22:45;;;;;;;;;;;;;;;22.06;52.98;101061.94;7404598;19;1537;-60
2022/09/23 01:25:25;;;;;;;;;;;;;;;22.05;52.83;101058.41;7403796;19;1607;-60
2022/09/23 01:28:04;;;;;;;;;;;;;;;22.03;53.14;101052.34;7405073;19;1419;-60
2022/09/23 01:30:39;;;;;;;;;;;;;;;22.06;53.10;101075.41;7401680;19;1517;-60
2022/09/23 01:33:12;;;;;;;;;;;;;;;22.07;52.79;101071.75;7400944;19;1569;-60
2022/09/23 01:35:44;;;;;;;;;;;;;;;22.01;52.77;101061.56;7403230;19;1548;-60
2022/09/23 01:38:19;;;;;;;;;;;;;;;22.03;52.62;101064.97;7400838;19;1955;-60
2022/09/23 01:40:51;;;;;;;;;;;;;;;21.99;52.78;101074.34;7402783;19;1378;-73
2022/09/23 01:43:24;;;;;;;;;;;;;;;22.00;52.88;101066.09;7401109;19;1438;-60
2022/09/23 01:45:58;;;;;;;;;;;;;;;21.98;52.78;101083.38;7402400;19;1384;-73
2022/09/23 01:48:30;;;;;;;;;;;;;;;21.98;52.70;101062.69;7402833;19;1860;-60
2022/09/23 01:51:02;;;;;;;;;;;;;;;22.00;52.48;101073.31;7409928;19;1338;-60
2022/09/23 01:53:38;;;;;;;;;;;;;;;21.97;52.51;101079.00;7411032;19;1525;-60
2022/09/23 01:56:09;;;;;;;;;;;;;;;22.04;52.38;101077.41;7408594;19;2011;-60
2022/09/23 01:58:41;;;;;;;;;;;;;;;21.99;52.47;101074.34;7408302;19;1693;-73
2022/09/23 02:01:14;;;;;;;;;;;;;;;21.96;52.51;101074.63;7401325;19;1434;-60
2022/09/23 02:03:47;;;;;;;;;;;;;;;21.98;52.47;101068.06;7403124;19;1737;-60
2022/09/23 02:06:18;;;;;;;;;;;;;;;21.98;52.56;101084.22;7408661;19;1459;-60
2022/09/23 02:08:49;;;;;;;;;;;;;;;21.97;52.33;101070.94;7408491;19;1833;-60
2022/09/23 02:11:18;;;;;;;;;;;;;;;21.93;52.33;101074.94;7408838;19;1382;-60
2022/09/23 02:13:50;;;;;;;;;;;;;;;21.95;52.41;101051.38;7409105;19;1399;-60
2022/09/23 02:16:25;;;;;;;;;;;;;;;22.00;52.21;101082.28;7408873;19;1430;-73
2022/09/23 02:18:57;;;;;;;;;;;;;;;21.96;52.18;101083.53;7409868;19;1405;-73
2022/09/23 02:21:28;;;;;;;;;;;;;;;21.94;52.34;101087.38;7409282;19;1419;-73
2022/09/23 02:24:00;;;;;;;;;;;;;;;22.02;52.21;101092.88;7410572;19;1362;-73
2022/09/23 02:26:31;;;;;;;;;;;;;;;21.98;52.19;101072.63;7407941;19;1538;-73
2022/09/23 02:29:06;;;;;;;;;;;;;;;21.96;52.13;101082.69;7408668;19;1849;-73
2022/09/23 02:31:39;;;;;;;;;;;;;;;21.93;52.34;101074.94;7407559;19;1443;-74
2022/09/23 02:34:14;;;;;;;;;;;;;;;21.94;52.43;101073.91;7408356;19;1354;-73
2022/09/23 02:36:48;;;;;;;;;;;;;;;21.96;52.26;101090.78;7409252;19;1471;-73
2022/09/23 02:39:18;;;;;;;;;;;;;;;21.94;52.13;101073.91;7409975;19;1432;-73
2022/09/23 02:41:53;;;;;;;;;;;;;;;21.94;52.18;101076.59;7410620;19;1416;-73
2022/09/23 02:44:21;;;;;;;;;;;;;;;21.94;52.02;101076.59;7410152;19;1322;-73
2022/09/23 02:46:53;;;;;;;;;;;;;;;21.93;52.14;101096.47;7408424;19;1476;-74
2022/09/23 02:49:23;;;;;;;;;;;;;;;21.89;52.31;101089.69;7409075;19;1851;-73
2022/09/23 02:51:53;;;;;;;;;;;;;;;21.90;52.32;101100.28;7407513;19;1765;-73
2022/09/23 02:54:23;;;;;;;;;;;;;;;21.92;51.97;101105.53;7408593;19;1654;-73
2022/09/23 02:56:52;;;;;;;;;;;;;;;21.90;52.14;101107.50;7408731;19;1527;-73
2022/09/23 02:59:22;;;;;;;;;;;;;;;21.87;52.12;101097.06;7409841;19;1392;-73
2022/09/23 03:02:06;;;;;;;;;;;;;;;21.89;51.78;101095.06;7405730;19;1482;-73
2022/09/23 03:04:41;;;;;;;;;;;;;;;21.87;51.86;101100.59;7408856;19;1365;-74
2022/09/23 03:07:15;;;;;;;;;;;;;;;21.89;51.64;101100.44;7405524;19;1301;-73
2022/09/23 03:09:49;;;;;;;;;;;;;;;21.90;51.58;101102.13;7404098;19;1873;-60
2022/09/23 03:12:21;;;;;;;;;;;;;;;21.93;51.63;101107.25;7408598;19;1604;-73
2022/09/23 03:14:56;;;;;;;;;;;;;;;21.89;51.56;101105.84;7408561;19;1443;-60
2022/09/23 03:17:31;;;;;;;;;;;;;;;21.95;51.75;101118.72;7406930;19;1564;-60
2022/09/23 03:20:02;;;;;;;;;;;;;;;21.92;51.70;101121.69;7406384;19;1423;-74
2022/09/23 03:22:33;;;;;;;;;;;;;;;21.91;51.50;101098.47;7408349;19;1431;-73
2022/09/23 03:25:05;;;;;;;;;;;;;;;21.86;51.63;101115.03;7408958;19;1749;-73
2022/09/23 03:27:36;;;;;;;;;;;;;;;21.90;51.68;101116.44;7406840;19;1344;-73
2022/09/23 03:30:06;;;;;;;;;;;;;;;21.86;51.67;101109.66;7407563;19;1860;-73
2022/09/23 03:32:38;;;;;;;;;;;;;;;21.85;51.71;101111.50;7407699;19;1403;-73
2022/09/23 03:35:07;;;;;;;;;;;;;;;21.84;51.68;101104.44;7407343;19;1529;-73
2022/09/23 03:37:38;;;;;;;;;;;;;;;21.84;51.43;101117.00;7407091;19;1514;-73
2022/09/23 03:40:10;;;;;;;;;;;;;;;21.83;51.39;101116.19;7406026;19;1513;-73
2022/09/23 03:42:39;;;;;;;;;;;;;;;21.84;51.39;101112.50;7407041;19;1546;-73
2022/09/23 03:45:11;;;;;;;;;;;;;;;21.83;51.60;101126.94;7408988;19;1800;-74
2022/09/23 03:47:42;;;;;;;;;;;;;;;21.81;51.63;101104.72;7407540;19;1629;-73
2022/09/23 03:50:12;;;;;;;;;;;;;;;21.85;51.29;101116.03;7406963;19;1859;-73
2022/09/23 03:52:40;;;;;;;;;;;;;;;21.87;51.26;101097.06;7407688;19;1418;-73
2022/09/23 03:55:09;;;;;;;;;;;;;;;21.87;51.19;101118.59;7407833;19;1356;-73
2022/09/23 03:57:38;;;;;;;;;;;;;;;21.82;51.62;101116.31;7406010;19;1552;-73
2022/09/23 04:00:08;;;;;;;;;;;;;;;21.83;51.42;101115.34;7406541;19;1537;-73
2022/09/23 04:02:36;;;;;;;;;;;;;;;21.79;51.41;101122.00;7405360;19;1544;-73
2022/09/23 04:05:07;;;;;;;;;;;;;;;21.82;51.41;101111.78;7406875;19;1562;-65
2022/09/23 04:07:36;;;;;;;;;;;;;;;21.77;47.39;101110.53;7404120;19;1278;-73
2022/09/23 04:10:06;;;;;;;;;;;;;;;21.74;47.01;101114.34;7402842;19;1845;-73
2022/09/23 04:12:34;;;;;;;;;;;;;;;21.68;48.14;101133.78;7404585;19;1443;-73
2022/09/23 04:15:03;;;;;;;;;;;;;;;21.60;49.28;101125.56;7404510;19;1533;-73
2022/09/23 04:17:31;;;;;;;;;;;;;;;21.61;49.98;101129.97;7403117;19;1567;-73
2022/09/23 04:20:00;;;;;;;;;;;;;;;21.65;50.18;101126.00;7404173;19;1427;-73
2022/09/23 04:22:31;;;;;;;;;;;;;;;21.67;50.10;101118.63;7404518;19;1576;-75
2022/09/23 04:24:59;;;;;;;;;;;;;;;21.67;50.53;101124.00;7405800;19;1355;-60
2022/09/23 04:27:28;;;;;;;;;;;;;;;21.69;50.69;101122.03;7406823;19;1326;-60
2022/09/23 04:29:56;;;;;;;;;;;;;;;21.73;51.10;101118.06;7407077;19;1848;-60
2022/09/23 04:32:24;;;;;;;;;;;;;;;21.81;51.15;101123.56;7400995;19;1487;-62
2022/09/23 04:34:53;;;;;;;;;;;;;;;21.91;51.44;101128.06;7402544;19;1517;-74
2022/09/23 04:37:21;;;;;;;;;;;;;;;21.73;49.74;101119.91;7399907;19;1703;-70
2022/09/23 04:39:52;;;;;;;;;;;;;;;21.80;50.88;101112.91;7405363;19;1541;-76
2022/09/23 04:42:21;;;;;;;;;;;;;;;21.87;51.29;101123.97;7402116;19;1532;-76
2022/09/23 04:44:49;;;;;;;;;;;;;;;21.81;51.19;101120.03;7405618;19;1462;-75
2022/09/23 04:47:18;;;;;;;;;;;;;;;21.95;51.79;101133.00;7400989;19;1201;-71
2022/09/23 04:49:46;;;;;;;;;;;;;;;22.00;51.93;101141.50;7404516;19;1848;-72
2022/09/23 04:52:14;;;;;;;;;;;;;;;21.95;52.06;101116.00;7405040;19;1521;-73
2022/09/23 04:54:43;;;;;;;;;;;;;;;22.00;51.87;101119.09;7405269;19;1533;-77
2022/09/23 04:57:13;;;;;;;;;;;;;;;21.99;52.30;101123.66;7404300;19;1525;-76
2022/09/23 04:59:44;;;;;;;;;;;;;;;21.99;52.59;101129.03;7403801;19;1407;-71
2022/09/23 05:02:12;;;;;;;;;;;;;;;22.01;52.69;101121.66;7404172;19;1624;-75
2022/09/23 05:04:40;;;;;;;;;;;;;;;22.06;52.69;101137.34;7404292;19;1541;-59
2022/09/23 05:07:09;;;;;;;;;;;;;;;22.01;52.79;101137.81;7405524;19;1464;-73
2022/09/23 05:09:37;;;;;;;;;;;;;;;22.03;53.18;101138.50;7405483;19;1832;-59
2022/09/23 05:12:06;;;;;;;;;;;;;;;22.05;52.69;101127.59;7398670;19;1487;-59
2022/09/23 05:14:37;;;;;;;;;;;;;;;22.04;53.09;101136.66;7403993;19;1364;-60
2022/09/23 05:17:06;;;;;;;;;;;;;;;22.05;53.09;101127.59;7402200;19;1497;-60
2022/09/23 05:19:34;;;;;;;;;;;;;;;22.02;53.30;101134.13;7401762;19;1605;-59
2022/09/23 05:22:04;;;;;;;;;;;;;;;21.99;53.55;101134.41;7401891;19;1311;-59
2022/09/23 05:24:32;;;;;;;;;;;;;;;22.06;53.48;101145.44;7401332;19;1287;-65
2022/09/23 05:27:00;;;;;;;;;;;;;;;22.08;53.18;101143.44;7404072;19;1312;-63
2022/09/23 05:29:30;;;;;;;;;;;;;;;22.09;53.34;101136.25;7400461;19;1838;-63
2022/09/23 05:32:01;;;;;;;;;;;;;;;22.10;53.37;101135.22;7402733;19;1231;-63
2022/09/23 05:34:29;;;;;;;;;;;;;;;22.09;53.42;101149.72;7403465;19;1367;-65
2022/09/23 05:36:57;;;;;;;;;;;;;;;22.09;53.72;101141.63;7402979;19;1623;-59
2022/09/23 05:39:26;;;;;;;;;;;;;;;22.09;53.65;101142.47;7401818;19;1316;-58
2022/09/23 05:41:54;;;;;;;;;;;;;;;22.06;53.66;101134.66;7400157;19;1696;-59
2022/09/23 05:44:23;;;;;;;;;;;;;;;22.07;53.84;101152.53;7403336;19;1377;-62
2022/09/23 05:46:51;;;;;;;;;;;;;;;22.05;53.95;101157.22;7401718;19;1338;-58
2022/09/23 05:49:22;;;;;;;;;;;;;;;22.09;53.55;101155.94;7403219;19;1316;-58
2022/09/23 05:51:50;;;;;;;;;;;;;;;22.03;53.51;101151.97;7400711;19;1859;-58
2022/09/23 05:54:19;;;;;;;;;;;;;;;21.99;53.65;101153.25;7402805;19;1890;-64
2022/09/23 05:56:47;;;;;;;;;;;;;;;21.99;53.69;101149.72;7402412;19;1421;-59
2022/09/23 05:59:15;;;;;;;;;;;;;;;22.02;53.66;101161.06;7401622;19;1411;-58
2022/09/23 06:01:45;;;;;;;;;;;;;;;22.09;53.48;101150.53;7401022;19;1307;-59
2022/09/23 06:04:14;;;;;;;;;;;;;;;22.14;53.64;101164.41;7402521;19;1378;-72
2022/09/23 06:06:45;;;;;;;;;;;;;;;22.17;53.42;101169.50;7402327;19;1260;-68
2022/09/23 06:09:15;;;;;;;;;;;;;;;22.20;53.64;101168.38;7403067;19;1707;-60
2022/09/23 06:11:44;;;;;;;;;;;;;;;22.17;54.15;101161.44;7397346;19;1854;-62
2022/09/23 06:14:13;;;;;;;;;;;;;;;22.23;53.77;101174.31;7397657;19;1399;-59
2022/09/23 06:16:42;;;;;;;;;;;;;;;22.27;53.94;101177.59;7400511;19;1508;-59
2022/09/23 06:19:10;;;;;;;;;;;;;;;22.34;53.76;101180.53;7400988;19;1639;-58
2022/09/23 06:21:40;;;;;;;;;;;;;;;22.27;54.29;101179.44;7404016;19;1612;-68
2022/09/23 06:24:11;;;;;;;;;;;;;;;22.30;53.99;101169.19;7403668;19;1612;-69
2022/09/23 06:26:39;;;;;;;;;;;;;;;22.34;53.59;101177.84;7401971;19;1540;-63
2022/09/23 06:29:11;;;;;;;;;;;;;;;22.34;54.24;101177.84;7402807;19;1555;-67
2022/09/23 06:31:40;;;;;;;;;;;;;;;22.34;54.12;101185.94;7400194;19;1838;-62
2022/09/23 06:34:08;;;;;;;;;;;;;;;;;;7400337;19;2209;-64
2022/09/23 06:36:37;;;;;;;;;;;;;;;22.40;53.54;101174.56;7404627;19;1249;-59
2022/09/23 06:39:05;;;;;;;;;;;;;;;22.47;53.52;101183.75;7405126;19;1718;-63
2022/09/23 06:41:36;;;;;;;;;;;;;;;22.52;53.73;101184.19;7405677;19;1260;-66
2022/09/23 06:44:05;;;;;;;;;;;;;;;22.51;53.51;101182.47;7407875;19;1473;-64
2022/09/23 06:46:35;;;;;;;;;;;;;;;22.54;54.46;101201.06;7410535;19;1328;-63
2022/09/23 06:49:03;;;;;;;;;;;;;;;22.47;52.55;101191.84;7406144;19;1683;-63
2022/09/23 06:51:32;;;;;;;;;;;;;;;22.37;54.38;101201.81;7405844;19;1857;-63
2022/09/23 06:54:01;;;;;;;;;;;;;;;22.36;55.08;101192.91;7406314;19;1325;-63
2022/09/23 06:56:29;;;;;;;;;;;;;;;22.30;55.43;101195.31;7407061;19;1319;-63
2022/09/23 06:59:00;;;;;;;;;;;;;;;22.27;55.11;101198.31;7406388;19;1813;-58
2022/09/23 07:01:29;;;;;;;;;;;;;;;22.31;54.75;101202.41;7408101;19;1540;-58
2022/09/23 07:03:57;;;;;;;;;;;;;;;22.23;54.83;101201.25;7408759;19;1287;-58
2022/09/23 07:06:25;;;;;;;;;;;;;;;22.23;54.83;101201.25;7407871;19;1518;-57
2022/09/23 07:08:54;;;;;;;;;;;;;;;22.26;54.78;101215.44;7408778;19;1470;-63
2022/09/23 07:11:22;;;;;;;;;;;;;;;22.20;55.29;101216.84;7406925;19;1853;-58
2022/09/23 07:13:51;;;;;;;;;;;;;;;22.23;54.91;101206.63;7408884;19;1431;-58
2022/09/23 07:16:22;;;;;;;;;;;;;;;22.19;55.14;101221.41;7408212;19;1620;-58
2022/09/23 07:18:52;;;;;;;;;;;;;;;22.19;55.38;101221.41;7409253;19;1544;-58
2022/09/23 07:21:20;;;;;;;;;;;;;;;22.26;55.06;101234.31;7408959;19;1462;-59
2022/09/23 07:23:50;;;;;;;;;;;;;;;22.21;55.22;101227.50;7407910;19;1698;-57
2022/09/23 07:26:19;;;;;;;;;;;;;;;22.22;55.19;101226.50;7406686;19;1336;-63
2022/09/23 07:28:48;;;;;;;;;;;;;;;22.17;55.11;101244.09;7407943;19;1707;-63
2022/09/23 07:31:17;;;;;;;;;;;;;;;22.16;55.38;101243.25;7406113;19;1869;-58
2022/09/23 07:33:48;;;;;;;;;;;;;;;22.16;54.90;101223.53;7407679;19;1443;-63
2022/09/23 07:36:19;;;;;;;;;;;;;;;22.16;55.11;101224.41;7407652;19;1524;-58
2022/09/23 07:38:48;;;;;;;;;;;;;;;22.13;55.06;101242.69;7407798;19;1557;-58
2022/09/23 07:41:18;;;;;;;;;;;;;;;22.14;54.01;101223.66;7408628;19;1451;-58
2022/09/23 07:43:46;;;;;;;;;;;;;;;22.13;54.56;101243.53;7408120;19;1662;-58
2022/09/23 07:46:16;;;;;;;;;;;;;;;22.04;53.92;101228.22;7406391;19;1741;-59
2022/09/23 07:48:45;;;;;;;;;;;;;;;22.02;53.98;101225.69;7406844;19;1400;-58
2022/09/23 07:51:19;;;;;;;;;;;;;;;21.97;53.63;101213.66;7406097;19;1845;-63
2022/09/23 07:53:48;;;;;;;;;;;;;;;21.98;53.38;101218.88;7406027;19;1320;-63
2022/09/23 07:56:18;;;;;;;;;;;;;;;21.98;53.39;101218.03;7408648;19;1733;-63
2022/09/23 07:58:58;;;;;;;;;;;;;;;21.96;53.42;101217.31;7408076;19;1611;-63
2022/09/23 08:01:27;;;;;;;;;;;;;;;21.96;53.36;101203.88;7407292;19;1588;-60
2022/09/23 08:03:56;;;;;;;;;;;;;;;21.91;53.57;101206.16;7406265;19;1513;-58
2022/09/23 08:06:27;;;;;;;;;;;;;;;21.93;53.33;101199.63;7405299;19;1795;-63
2022/09/23 08:08:58;;;;;;;;;;;;;;;21.96;53.44;101195.78;7402474;19;1576;-63
2022/09/23 08:11:27;;;;;;;;;;;;;;;21.98;53.59;101196.50;7406239;19;1864;-64
2022/09/23 08:13:56;;;;;;;;;;;;;;;22.04;53.71;101195.91;7405501;19;1647;-64
2022/09/23 08:16:24;;;;;;;;;;;;;;;22.05;53.75;101197.63;7404515;19;1766;-69
2022/09/23 08:18:53;;;;;;;;;;;;;;;22.06;53.88;101199.31;7406517;19;1401;-59
2022/09/23 08:21:21;;;;;;;;;;;;;;;22.08;53.54;101201.84;7406491;19;1252;-66
2022/09/23 08:23:52;;;;;;;;;;;;;;;22.07;54.03;101203.72;7407249;19;1333;-61
2022/09/23 08:26:21;;;;;;;;;;;;;;;22.01;54.33;101190.81;7404152;19;2705;-60
2022/09/23 08:28:49;;;;;;;;;;;;;;;22.16;54.44;101197.47;7405177;19;1631;-60
2022/09/23 08:31:17;;;;;;;;;;;;;;;22.12;54.11;101197.88;7405120;19;1833;-60
2022/09/23 08:33:46;;;;;;;;;;;;;;;22.02;54.39;101198.78;7405791;19;1536;-59
2022/09/23 08:36:14;;;;;;;;;;;;;;;22.00;54.29;101199.88;7405840;19;1528;-60
2022/09/23 08:38:43;;;;;;;;;;;;;;;22.03;54.46;101186.16;7406525;19;1533;-60
2022/09/23 08:41:20;;;;;;;;;;;;;;;21.96;54.41;101187.72;7404914;19;1568;-64
2022/09/23 08:43:51;;;;;;;;;;;;;;;21.93;54.06;101177.25;7401976;19;1553;-60
2022/09/23 08:46:22;;;;;;;;;;;;;;;21.96;54.26;101198.47;7405669;19;1664;-60
2022/09/23 08:48:51;;;;;;;;;;;;;;;21.94;54.23;101208.53;7403607;19;1593;-63
2022/09/23 08:51:23;;;;;;;;;;;;;;;21.95;54.43;101196.78;7403645;19;1867;-64
2022/09/23 08:53:52;;;;;;;;;;;;;;;22.00;54.41;101206.16;7402539;19;1698;-60
2022/09/23 08:56:24;;;;;;;;;;;;;;;22.07;54.09;101210.94;7401253;19;1546;-68
2022/09/23 08:59:01;;;;;;;;;;;;;;;22.02;54.29;101208.66;7404114;19;1565;-64
2022/09/23 09:01:33;;;;;;;;;;;;;;;21.99;54.56;101215.19;7402307;19;1747;-64
2022/09/23 09:04:02;;;;;;;;;;;;;;;22.04;54.36;101218.31;7404080;19;1652;-66
2022/09/23 09:06:32;;;;;;;;;;;;;;;22.01;54.73;101207.00;7402982;19;1684;-63
2022/09/23 09:09:02;;;;;;;;;;;;;;;22.03;54.53;101200.44;7402274;19;1271;-63
2022/09/23 09:11:37;;;;;;;;;;;;;;;22.01;54.83;101207.00;7402808;19;1856;-63
2022/09/23 09:14:12;;;;;;;;;;;;;;;21.98;54.68;101202.72;7403603;19;1334;-59
2022/09/23 09:16:59;;;;;;;;;;;;;;;21.96;54.62;101199.31;7404532;19;1437;-58
2022/09/23 09:19:39;;;;;;;;;;;;;;;21.94;54.79;101195.91;7405455;19;1431;-59
2022/09/23 09:22:10;;;;;;;;;;;;;;;21.94;54.68;101206.69;7405777;19;1580;-58
2022/09/23 09:24:39;;;;;;;;;;;;;;;21.97;54.95;101205.56;7405200;19;1766;-58
2022/09/23 09:27:13;;;;;;;;;;;;;;;21.96;54.91;101215.47;7404374;19;1769;-63
2022/09/23 09:29:45;;;;;;;;;;;;;;;21.97;54.62;101200.19;7402341;19;1750;-63
2022/09/23 09:32:18;;;;;;;;;;;;;;;21.95;54.79;101196.78;7403750;19;1865;-63
2022/09/23 09:34:50;;;;;;;;;;;;;;;22.01;54.70;101204.28;7404245;19;1294;-63
2022/09/23 09:37:22;;;;;;;;;;;;;;;22.01;54.63;101207.00;7402157;19;1623;-63
2022/09/23 09:39:50;;;;;;;;;;;;;;;22.10;54.50;101216.88;7401795;19;1287;-68
2022/09/23 09:42:25;;;;;;;;;;;;;;;22.13;54.47;101199.59;7403541;19;1628;-60
2022/09/23 09:44:57;;;;;;;;;;;;;;;22.16;54.50;101199.28;7404156;19;1572;-59
2022/09/23 09:47:30;;;;;;;;;;;;;;;22.18;54.94;101217.03;7403071;19;1620;-61
2022/09/23 09:50:04;;;;;;;;;;;;;;;22.16;54.82;101210.94;7403442;19;1708;-61
2022/09/23 09:52:36;;;;;;;;;;;;;;;22.18;55.21;101218.84;7403139;19;1863;-68
2022/09/23 09:55:19;;;;;;;;;;;;;;;22.16;55.32;101216.31;7402473;19;1710;-60
2022/09/23 09:57:52;;;;;;;;;;;;;;;22.21;54.96;101203.25;7403360;19;1710;-68
2022/09/23 10:00:35;;;;;;;;;;;;;;;22.21;55.56;101223.94;7403138;19;1724;-66
2022/09/23 10:03:07;;;;;;;;;;;;;;;22.21;55.32;101205.94;7400680;19;1671;-57
2022/09/23 10:05:38;;;;;;;;;;;;;;;22.23;55.12;101206.63;7403012;19;1648;-64
2022/09/23 10:08:23;;;;;;;;;;;;;;;22.18;55.89;101206.25;7401602;19;1501;-64
2022/09/23 10:10:56;;;;;;;;;;;;;;;22.24;55.70;101205.69;7404857;19;1643;-64
2022/09/23 10:13:29;;;;;;;;;;;;;;;22.35;55.53;101209.19;7409720;19;1438;-57
2022/09/23 10:15:58;;;;;;;;;;;;;;;22.33;55.56;101195.03;7411564;19;1638;-63
2022/09/23 10:18:30;;;;;;;;;;;;;;;22.40;56.03;101202.38;7411039;19;1522;-63
2022/09/23 10:21:04;;;;;;;;;;;;;;;22.38;55.43;101190.03;7410154;19;1664;-62
2022/09/23 10:23:33;;;;;;;;;;;;;;;22.44;55.44;101197.53;7409856;19;1494;-63
2022/09/23 10:26:03;;;;;;;;;;;;;;;22.49;55.30;101189.00;7409797;19;1734;-66
2022/09/23 10:28:41;;;;;;;;;;;;;;;22.47;55.48;101197.22;7406443;19;1457;-64
2022/09/23 10:31:11;;;;;;;;;;;;;;;22.48;55.62;101188.13;7408477;19;1855;-65
2022/09/23 10:33:43;;;;;;;;;;;;;;;22.41;56.24;101181.66;7407876;19;1714;-57
2022/09/23 10:36:12;;;;;;;;;;;;;;;22.39;55.62;101199.81;7410445;19;1601;-65
2022/09/23 10:38:40;;;;;;;;;;;;;;;22.37;56.03;101174.88;7410354;19;1533;-65
2022/09/23 10:47:01;;;;;;;;;;;;;;;22.36;55.57;101163.25;7402010;19;1575;-58
2022/09/23 10:49:39;;;;;;;;;;;;;;;22.34;55.71;101169.75;7409019;19;1660;-58
2022/09/23 10:52:23;;;;;;;;;;;;;;;22.22;53.46;101159.16;7407427;19;1858;-66
2022/09/23 10:55:00;;;;;;;;;;;;;;;21.85;52.02;101159.13;7408472;19;1819;-58
2022/09/23 10:57:42;;;;;;;;;;;;;;;22.02;52.82;101176.34;7408297;19;1648;-57
2022/09/23 11:00:21;;;;;;;;;;;;;;;22.05;52.40;101159.91;7406812;19;1976;-57
2022/09/23 11:03:01;;;;;;;;;;;;;;;22.02;51.96;101160.19;7406681;19;1430;-57
2022/09/23 11:05:35;;;;;;;;;;;;;;;22.09;53.53;101153.25;7405744;19;1691;-65
2022/09/23 11:08:10;;;;;;;;;;;;;;;22.18;53.13;101159.56;7409099;19;1478;-64
2022/09/23 11:10:48;;;;;;;;;;;;;;;22.10;52.86;101138.75;7409811;19;1614;-56
2022/09/23 11:13:25;;;;;;;;;;;;;;;22.19;53.36;101140.59;7406677;19;1846;-64
2022/09/23 11:16:03;;;;;;;;;;;;;;;22.14;53.09;101148.25;7409136;19;1472;-56
2022/09/23 11:18:46;;;;;;;;;;;;;;;22.11;53.17;101127.00;7410272;19;1490;-64
2022/09/23 11:21:27;;;;;;;;;;;;;;;22.14;52.26;101115.91;7410043;19;1525;-64
2022/09/23 11:24:03;;;;;;;;;;;;;;;22.09;52.50;101126.31;7408375;19;1423;-56
2022/09/23 11:26:39;;;;;;;;;;;;;;;22.10;52.15;101114.53;7410295;19;1367;-64
2022/09/23 11:29:16;;;;;;;;;;;;;;;22.11;52.94;101124.31;7409363;19;1809;-64
2022/09/23 11:31:53;;;;;;;;;;;;;;;22.09;51.67;101102.06;7409141;19;1862;-57
2022/09/23 11:34:36;;;;;;;;;;;;;;;22.10;51.70;101101.06;7409232;19;1796;-64
2022/09/23 11:37:08;;;;;;;;;;;;;;;22.09;51.54;101107.44;7409005;19;1410;-64
2022/09/23 11:39:39;;;;;;;;;;;;;;;22.07;52.07;101087.06;7408481;19;1536;-57
2022/09/23 11:42:11;;;;;;;;;;;;;;;22.07;51.18;101108.59;7408502;19;1519;-64
2022/09/23 11:44:42;;;;;;;;;;;;;;;22.06;51.52;101091.56;7408864;19;1540;-56
2022/09/23 11:47:18;;;;;;;;;;;;;;;22.05;51.17;101084.50;7407897;19;1442;-64
2022/09/23 11:49:51;;;;;;;;;;;;;;;22.07;51.32;101076.28;7407575;19;1544;-56
2022/09/23 11:52:22;;;;;;;;;;;;;;;22.04;50.74;101072.03;7408187;19;1873;-64
2022/09/23 11:54:53;;;;;;;;;;;;;;;22.06;51.59;101078.09;7406790;19;1235;-64
2022/09/23 11:57:25;;;;;;;;;;;;;;;22.09;51.89;101075.13;7407032;19;1718;-57
2022/09/23 11:59:58;;;;;;;;;;;;;;;22.05;51.40;101065.66;7407092;19;1330;-56
2022/09/23 12:02:32;;;;;;;;;;;;;;;22.11;49.93;101066.91;7405381;19;1585;-63
2022/09/23 12:05:02;;;;;;;;;;;;;;;22.07;51.38;101060.97;7407624;19;1678;-64
2022/09/23 12:07:36;;;;;;;;;;;;;;;22.08;51.46;101061.81;7406226;19;1594;-56
2022/09/23 12:10:06;;;;;;;;;;;;;;;22.12;51.22;101061.34;7407856;19;1180;-64
2022/09/23 12:12:39;;;;;;;;;;;;;;;22.11;51.42;101066.91;7404185;19;1850;-63
2022/09/23 12:15:13;;;;;;;;;;;;;;;22.06;50.24;101064.66;7405663;19;1331;-64
2022/09/23 12:17:56;;;;;;;;;;;;;;;22.05;50.83;101063.81;7405293;19;1463;-64
2022/09/23 12:20:40;;;;;;;;;;;;;;;22.08;49.79;101057.25;7407067;19;1346;-63
2022/09/23 12:23:15;;;;;;;;;;;;;;;22.04;50.38;101056.75;7406895;19;1360;-56
2022/09/23 12:25:46;;;;;;;;;;;;;;;22.04;50.32;101050.47;7407256;19;1588;-64
2022/09/23 12:28:17;;;;;;;;;;;;;;;22.07;50.01;101068.22;7406627;19;1535;-64
2022/09/23 12:30:46;;;;;;;;;;;;;;;22.07;49.92;101060.97;7407665;19;946;-64
2022/09/23 12:33:23;;;;;;;;;;;;;;;22.08;49.63;101061.81;7405311;19;1857;-64
2022/09/23 12:35:55;;;;;;;;;;;;;;;22.08;49.34;101062.66;7405209;19;1682;-56
2022/09/23 12:38:26;;;;;;;;;;;;;;;22.03;50.26;101049.63;7406559;19;1443;-64
2022/09/23 12:40:56;;;;;;;;;;;;;;;22.08;50.19;101040.25;7405992;19;1761;-63
2022/09/23 12:43:32;;;;;;;;;;;;;;;22.04;49.52;101039.72;7405705;19;1734;-64
2022/09/23 12:46:18;;;;;;;;;;;;;;;22.05;49.80;101044.94;7404677;19;1854;-56
2022/09/23 12:48:49;;;;;;;;;;;;;;;22.04;50.74;101034.31;7405527;19;1646;-56
2022/09/23 12:51:24;;;;;;;;;;;;;;;22.03;50.51;101043.41;7406189;19;1545;-64
2022/09/23 12:54:00;;;;;;;;;;;;;;;22.02;49.92;101047.97;7404221;19;1866;-64
2022/09/23 12:56:30;;;;;;;;;;;;;;;22.04;50.74;101031.63;7407181;19;1276;-56
2022/09/23 12:59:00;;;;;;;;;;;;;;;22.01;50.21;101026.56;7406388;19;1525;-57
2022/09/23 13:01:28;;;;;;;;;;;;;;;22.00;49.63;101022.16;7404546;19;1556;-56
2022/09/23 13:06:42;;;;;;;;;;;;;;;22.01;49.51;101024.72;7406430;19;1328;-56
2022/09/23 13:09:14;;;;;;;;;;;;;;;21.99;49.25;101025.84;7402244;19;1430;-64
2022/09/23 13:11:45;;;;;;;;;;;;;;;22.03;49.31;101025.41;7405188;19;1496;-64
2022/09/23 13:14:18;;;;;;;;;;;;;;;22.00;49.85;101024.84;7403686;19;1855;-56
2022/09/23 13:16:47;;;;;;;;;;;;;;;22.03;50.11;101029.94;7405471;19;1607;-58
2022/09/23 13:19:31;;;;;;;;;;;;;;;22.01;50.19;101022.00;7403594;19;1817;-57